Sitio d'Abadia, Brazil
Current Conditions -  °F | °C
As of 8:00 PM on Sunday 23 Nov 2014 (Local Time) from SBBR Reporting Station
Light Rain Light Rain  
Wind Chill: 68°   Ceiling: 2000
Heat Index: 68°   Visibility: 6mi
Dew Point: 64°   Wind: 5mph
Humidity: 88%   Direction: 360°N
Pressure: 30.03"   Gusts: NA
Location:  14.81°S, 46.25°W
Report Text: SBBR 232200Z 36004KT 9999 -RA BKN020 OVC100 20/18 Q1017 RERA
Loading
Personal Weather Stations






























Interactive Weather Map New forecast layout! Learn more

10-Day Weather Forecast

Advertisements
Track Severe Weather on mobile